createdAt,value
2023-03-18T00:01:47.655Z,100.00
2023-03-18T00:04:14.046Z,100.00
2023-03-18T00:06:41.228Z,100.00
2023-03-18T00:09:07.615Z,100.00
2023-03-18T00:11:35.598Z,100.00
2023-03-18T00:14:02.065Z,100.00
2023-03-18T00:16:28.737Z,100.00
2023-03-18T00:18:55.342Z,100.00
2023-03-18T00:21:21.751Z,100.00
2023-03-18T00:23:48.153Z,100.00
2023-03-18T00:26:14.547Z,100.00
2023-03-18T00:28:40.962Z,100.00
2023-03-18T00:31:11.617Z,100.00
2023-03-18T00:33:39.659Z,100.00
2023-03-18T00:36:07.845Z,100.00
2023-03-18T00:38:36.972Z,100.00
2023-03-18T00:41:03.686Z,100.00
2023-03-18T00:43:31.161Z,100.00
2023-03-18T00:45:57.841Z,100.00
2023-03-18T00:48:25.645Z,100.00
2023-03-18T00:50:52.568Z,100.00
2023-03-18T00:53:20.370Z,100.00
2023-03-18T00:55:46.677Z,100.00
2023-03-18T00:58:13.239Z,100.00
2023-03-18T01:00:40.945Z,100.00
2023-03-18T01:03:07.990Z,100.00
2023-03-18T01:05:35.669Z,100.00
2023-03-18T01:08:02.031Z,100.00
2023-03-18T01:10:28.898Z,100.00
2023-03-18T01:12:56.076Z,100.00
2023-03-18T01:15:22.657Z,100.00
2023-03-18T01:17:49.731Z,100.00
2023-03-18T01:20:19.955Z,100.00
2023-03-18T01:22:46.427Z,100.00
2023-03-18T01:25:15.875Z,100.00
2023-03-18T01:27:43.405Z,100.00
2023-03-18T01:30:11.104Z,100.00
2023-03-18T01:32:37.519Z,100.00
2023-03-18T01:35:05.222Z,100.00
2023-03-18T01:37:31.699Z,100.00
2023-03-18T01:39:58.010Z,100.00
2023-03-18T01:42:24.628Z,100.00
2023-03-18T01:45:11.852Z,100.00
2023-03-18T01:47:38.204Z,100.00
2023-03-18T01:50:04.991Z,100.00
2023-03-18T01:52:32.503Z,100.00
2023-03-18T01:55:04.052Z,100.00
2023-03-18T01:57:31.751Z,100.00
2023-03-18T01:59:59.963Z,100.00
2023-03-18T02:02:26.905Z,100.00
2023-03-18T02:04:55.848Z,100.00
2023-03-18T02:07:27.068Z,100.00
2023-03-18T02:09:55.144Z,100.00
2023-03-18T02:12:25.192Z,100.00
2023-03-18T02:14:53.198Z,100.00
2023-03-18T02:17:23.096Z,100.00
2023-03-18T02:20:08.163Z,100.00
2023-03-18T02:22:43.122Z,100.00
2023-03-18T02:25:31.015Z,100.00
2023-03-18T02:28:02.347Z,100.00
2023-03-18T02:30:36.090Z,100.00
2023-03-18T02:33:03.314Z,100.00
2023-03-18T02:35:31.572Z,100.00
2023-03-18T02:37:58.590Z,100.00
2023-03-18T02:40:37.133Z,100.00
2023-03-18T02:43:28.270Z,100.00
2023-03-18T02:46:16.652Z,100.00
2023-03-18T02:48:46.230Z,100.00
2023-03-18T02:51:14.414Z,100.00
2023-03-18T02:53:41.038Z,100.00
2023-03-18T02:56:08.664Z,100.00
2023-03-18T02:58:36.475Z,100.00
2023-03-18T03:01:05.026Z,100.00
2023-03-18T03:03:31.797Z,100.00
2023-03-18T03:05:58.844Z,100.00
2023-03-18T03:08:25.295Z,100.00
2023-03-18T03:10:52.069Z,100.00
2023-03-18T03:13:20.103Z,100.00
2023-03-18T03:15:46.736Z,100.00
2023-03-18T03:18:13.246Z,100.00
2023-03-18T03:20:40.383Z,100.00
2023-03-18T03:23:09.119Z,100.00
2023-03-18T03:25:36.814Z,100.00
2023-03-18T03:28:04.312Z,100.00
2023-03-18T03:30:31.850Z,100.00
2023-03-18T03:32:59.628Z,100.00
2023-03-18T03:35:26.227Z,100.00
2023-03-18T03:37:52.597Z,100.00
2023-03-18T03:40:20.889Z,100.00
2023-03-18T03:42:48.479Z,100.00
2023-03-18T03:45:16.946Z,100.00
2023-03-18T03:47:44.010Z,100.00
2023-03-18T03:50:11.128Z,100.00
2023-03-18T03:52:38.212Z,100.00
2023-03-18T03:55:07.455Z,100.00
2023-03-18T03:57:35.128Z,100.00
2023-03-18T04:00:02.803Z,100.00
2023-03-18T04:02:32.009Z,100.00
2023-03-18T04:04:58.518Z,100.00
2023-03-18T04:07:24.966Z,100.00
2023-03-18T04:09:51.293Z,100.00
2023-03-18T04:12:19.978Z,100.00
2023-03-18T04:14:47.567Z,100.00
2023-03-18T04:17:14.665Z,100.00
2023-03-18T04:19:41.277Z,100.00
2023-03-18T04:22:07.701Z,100.00
2023-03-18T04:24:34.264Z,100.00
2023-03-18T04:27:00.741Z,100.00
2023-03-18T04:29:27.085Z,100.00
2023-03-18T04:31:56.024Z,100.00
2023-03-18T04:34:22.561Z,100.00
2023-03-18T04:36:48.924Z,100.00
2023-03-18T04:39:15.573Z,100.00
2023-03-18T04:41:42.136Z,100.00
2023-03-18T04:44:08.551Z,100.00
2023-03-18T04:46:35.040Z,100.00
2023-03-18T04:49:01.532Z,100.00
2023-03-18T04:51:27.838Z,100.00
2023-03-18T04:53:54.130Z,100.00
2023-03-18T04:56:20.587Z,100.00
2023-03-18T04:58:47.595Z,100.00
2023-03-18T05:01:14.596Z,100.00
2023-03-18T05:03:41.881Z,100.00
2023-03-18T05:06:09.617Z,100.00
2023-03-18T05:08:36.882Z,100.00
2023-03-18T05:11:04.364Z,100.00
2023-03-18T05:13:30.700Z,100.00
2023-03-18T05:15:57.195Z,100.00
2023-03-18T05:18:23.731Z,100.00
2023-03-18T05:20:50.110Z,100.00
2023-03-18T05:23:16.429Z,100.00
2023-03-18T05:25:42.947Z,100.00
2023-03-18T05:28:11.312Z,100.00
2023-03-18T05:30:37.867Z,100.00
2023-03-18T05:33:04.261Z,100.00
2023-03-18T05:35:30.888Z,100.00
2023-03-18T05:37:57.557Z,100.00
2023-03-18T05:40:24.077Z,100.00
2023-03-18T05:42:56.257Z,100.00
2023-03-18T05:45:23.200Z,100.00
2023-03-18T05:47:50.047Z,100.00
2023-03-18T05:50:35.054Z,100.00
2023-03-18T05:53:04.132Z,100.00
2023-03-18T05:55:31.363Z,100.00
2023-03-18T05:57:58.338Z,100.00
2023-03-18T06:00:25.499Z,100.00
2023-03-18T06:02:52.050Z,100.00
2023-03-18T06:05:18.911Z,100.00
2023-03-18T06:07:45.480Z,100.00
2023-03-18T06:10:12.274Z,100.00
2023-03-18T06:12:40.093Z,100.00
2023-03-18T06:15:08.329Z,100.00
2023-03-18T06:17:35.604Z,100.00
2023-03-18T06:20:03.528Z,100.00
2023-03-18T06:22:30.230Z,100.00
2023-03-18T06:24:56.785Z,100.00
2023-03-18T06:27:23.440Z,100.00
2023-03-18T06:29:49.916Z,100.00
2023-03-18T06:32:16.402Z,100.00
2023-03-18T06:34:43.276Z,100.00
2023-03-18T06:37:09.908Z,100.00
2023-03-18T06:39:36.564Z,100.00
2023-03-18T06:42:02.906Z,100.00
2023-03-18T06:44:29.347Z,100.00
2023-03-18T06:46:56.141Z,100.00
2023-03-18T06:49:22.696Z,100.00
2023-03-18T06:51:49.106Z,100.00
2023-03-18T06:54:15.711Z,100.00
2023-03-18T06:56:43.403Z,100.00
2023-03-18T06:59:11.064Z,100.00
2023-03-18T07:01:37.663Z,100.00
2023-03-18T07:04:04.547Z,100.00
2023-03-18T07:06:32.028Z,100.00
2023-03-18T07:08:59.025Z,100.00
2023-03-18T07:11:25.598Z,100.00
2023-03-18T07:13:52.348Z,100.00
2023-03-18T07:16:19.719Z,100.00
2023-03-18T07:18:46.315Z,100.00
2023-03-18T07:21:12.672Z,100.00
2023-03-18T07:23:39.126Z,100.00
2023-03-18T07:26:05.631Z,100.00
2023-03-18T07:28:32.269Z,100.00
2023-03-18T07:30:58.646Z,100.00
2023-03-18T07:33:25.075Z,100.00
2023-03-18T07:35:51.450Z,100.00
2023-03-18T07:38:17.857Z,100.00
2023-03-18T07:40:44.186Z,100.00
2023-03-18T07:43:10.836Z,100.00
2023-03-18T07:45:37.239Z,100.00
2023-03-18T07:48:03.890Z,100.00
2023-03-18T07:50:30.386Z,100.00
2023-03-18T07:52:57.084Z,100.00
2023-03-18T07:55:23.501Z,100.00
2023-03-18T07:57:50.080Z,100.00
2023-03-18T08:00:17.340Z,100.00
2023-03-18T08:02:43.904Z,100.00
2023-03-18T08:05:10.734Z,100.00
2023-03-18T08:07:37.492Z,100.00
2023-03-18T08:10:04.093Z,100.00
2023-03-18T08:12:45.085Z,100.00
2023-03-18T08:15:19.392Z,100.00
2023-03-18T08:17:45.982Z,100.00
2023-03-18T08:20:12.980Z,100.00
2023-03-18T08:22:40.242Z,100.00
2023-03-18T08:25:06.933Z,100.00
2023-03-18T08:27:33.600Z,100.00
2023-03-18T08:30:01.642Z,100.00
2023-03-18T08:32:30.321Z,100.00
2023-03-18T08:34:56.716Z,100.00
2023-03-18T08:37:23.245Z,100.00
2023-03-18T08:39:49.731Z,100.00
2023-03-18T08:42:16.112Z,93.36
2023-03-18T08:44:42.527Z,91.73
2023-03-18T08:47:09.212Z,91.13
2023-03-18T08:49:36.104Z,90.70
2023-03-18T08:52:03.318Z,90.79
2023-03-18T08:54:29.958Z,86.75
2023-03-18T08:56:56.360Z,87.29
2023-03-18T08:59:22.952Z,85.63
2023-03-18T09:01:49.500Z,83.49
2023-03-18T09:04:16.253Z,82.94
2023-03-18T09:06:42.766Z,81.15
2023-03-18T09:09:09.567Z,78.19
2023-03-18T09:11:36.001Z,77.55
2023-03-18T09:14:02.395Z,75.46
2023-03-18T09:16:29.146Z,73.73
2023-03-18T09:18:55.766Z,68.58
2023-03-18T09:21:22.170Z,69.77
2023-03-18T09:23:48.576Z,63.21
2023-03-18T09:26:15.393Z,62.62
2023-03-18T09:28:43.639Z,57.39
2023-03-18T09:31:10.378Z,58.20
2023-03-18T09:33:38.247Z,53.36
2023-03-18T09:36:05.041Z,49.47
2023-03-18T09:38:31.412Z,50.14
2023-03-18T09:41:05.529Z,51.75
2023-03-18T09:43:55.671Z,50.30
2023-03-18T09:46:54.514Z,47.98
2023-03-18T09:49:38.247Z,44.38
2023-03-18T09:52:19.037Z,45.70
2023-03-18T09:55:02.483Z,45.11
2023-03-18T09:57:33.608Z,44.83
2023-03-18T10:00:23.225Z,41.90
2023-03-18T10:02:54.864Z,40.20
2023-03-18T10:05:30.410Z,40.01
2023-03-18T10:08:03.835Z,38.70
2023-03-18T10:10:41.455Z,36.87
2023-03-18T10:13:17.413Z,37.44
2023-03-18T10:15:52.412Z,37.49
2023-03-18T10:18:26.600Z,38.42
2023-03-18T10:20:59.281Z,38.45
2023-03-18T10:23:37.971Z,39.16
2023-03-18T10:26:38.458Z,37.70
2023-03-18T10:29:26.804Z,37.90
2023-03-18T10:32:20.532Z,36.13
2023-03-18T10:35:03.854Z,34.60
2023-03-18T10:37:54.063Z,34.80
2023-03-18T10:40:21.283Z,34.08
2023-03-18T10:42:50.234Z,33.50
2023-03-18T10:45:25.065Z,32.12
2023-03-18T10:48:18.571Z,31.91
2023-03-18T10:50:56.625Z,32.13
2023-03-18T10:53:43.941Z,31.28
2023-03-18T10:56:12.701Z,31.51
2023-03-18T10:58:40.415Z,31.39
2023-03-18T11:01:16.341Z,31.79
2023-03-18T11:03:51.692Z,32.58
2023-03-18T11:06:26.715Z,32.61
2023-03-18T11:09:04.869Z,32.49
2023-03-18T11:11:34.111Z,32.29
2023-03-18T11:14:04.491Z,32.76
2023-03-18T11:16:37.130Z,32.20
2023-03-18T11:19:22.348Z,32.93
2023-03-18T11:21:49.474Z,32.60
2023-03-18T11:24:26.987Z,32.61
2023-03-18T11:26:57.233Z,31.63
2023-03-18T11:29:30.064Z,32.25
2023-03-18T11:32:00.601Z,30.47
2023-03-18T11:34:28.214Z,31.80
2023-03-18T11:37:01.537Z,31.79
2023-03-18T11:39:31.922Z,31.86
2023-03-18T11:42:00.975Z,32.08
2023-03-18T11:44:33.525Z,31.18
2023-03-18T11:47:07.127Z,31.29
2023-03-18T11:49:33.750Z,30.72
2023-03-18T11:52:27.199Z,31.93
2023-03-18T11:55:01.523Z,31.09
2023-03-18T11:57:55.261Z,31.69
2023-03-18T12:00:51.211Z,31.01
2023-03-18T12:03:49.057Z,29.82
2023-03-18T12:06:29.381Z,29.99
2023-03-18T12:09:30.170Z,30.42
2023-03-18T12:12:20.419Z,29.67
2023-03-18T12:14:58.786Z,30.03
2023-03-18T12:17:49.737Z,29.74
2023-03-18T12:20:37.031Z,29.62
2023-03-18T12:23:21.493Z,29.25
2023-03-18T12:26:19.137Z,29.34
2023-03-18T12:29:37.665Z,29.65
2023-03-18T12:32:38.296Z,29.33
2023-03-18T12:35:04.854Z,29.11
2023-03-18T12:37:57.610Z,29.43
2023-03-18T12:40:40.752Z,29.83
2023-03-18T12:43:26.764Z,29.33
2023-03-18T12:45:59.809Z,28.98
2023-03-18T12:48:44.954Z,28.28
2023-03-18T12:51:25.674Z,28.90
2023-03-18T12:54:00.622Z,29.46
2023-03-18T12:56:29.858Z,29.64
2023-03-18T12:59:15.493Z,29.66
2023-03-18T13:02:14.055Z,30.06
2023-03-18T13:04:48.322Z,28.39
2023-03-18T13:07:40.463Z,29.22
2023-03-18T13:10:24.275Z,29.35
2023-03-18T13:13:01.207Z,29.16
2023-03-18T13:15:35.985Z,28.67
2023-03-18T13:18:31.426Z,29.07
2023-03-18T13:20:59.380Z,28.98
2023-03-18T13:23:48.461Z,28.32
2023-03-18T13:26:44.236Z,27.85
2023-03-18T13:29:39.810Z,28.02
2023-03-18T13:32:40.255Z,28.63
2023-03-18T13:35:27.688Z,28.62
2023-03-18T13:38:18.894Z,28.83
2023-03-18T13:41:00.927Z,29.01
2023-03-18T13:43:28.657Z,28.10
2023-03-18T13:45:57.466Z,29.09
2023-03-18T13:48:30.992Z,28.47
2023-03-18T13:50:58.970Z,27.69
2023-03-18T13:53:30.235Z,28.38
2023-03-18T13:55:56.519Z,27.95
2023-03-18T13:58:46.190Z,28.77
2023-03-18T14:01:27.401Z,28.57
2023-03-18T14:04:14.905Z,27.35
2023-03-18T14:06:56.486Z,27.43
2023-03-18T14:09:33.123Z,26.94
2023-03-18T14:12:17.743Z,27.63
2023-03-18T14:15:09.731Z,27.63
2023-03-18T14:17:44.317Z,28.15
2023-03-18T14:20:22.504Z,28.65
2023-03-18T14:22:52.200Z,28.46
2023-03-18T14:25:18.640Z,27.83
2023-03-18T14:27:46.526Z,27.69
2023-03-18T14:30:39.199Z,27.82
2023-03-18T14:33:17.638Z,28.86
2023-03-18T14:35:58.214Z,28.64
2023-03-18T14:38:27.634Z,28.26
2023-03-18T14:40:56.718Z,28.91
2023-03-18T14:43:30.347Z,28.10
2023-03-18T14:45:59.750Z,27.85
2023-03-18T14:48:33.751Z,27.90
2023-03-18T14:51:23.988Z,28.04
2023-03-18T14:53:53.916Z,28.34
2023-03-18T14:56:30.990Z,29.36
2023-03-18T14:58:57.332Z,28.54
2023-03-18T15:01:28.299Z,28.47
2023-03-18T15:03:54.920Z,29.27
2023-03-18T15:06:30.738Z,29.26
2023-03-18T15:09:25.997Z,29.08
2023-03-18T15:11:53.062Z,29.29
2023-03-18T15:14:29.694Z,29.14
2023-03-18T15:16:59.265Z,29.41
2023-03-18T15:19:28.405Z,29.60
2023-03-18T15:21:57.993Z,30.28
2023-03-18T15:24:26.495Z,30.44
2023-03-18T15:27:12.758Z,29.93
2023-03-18T15:29:51.718Z,30.36
2023-03-18T15:32:25.435Z,29.87
2023-03-18T15:34:54.829Z,30.20
2023-03-18T15:37:32.274Z,30.08
2023-03-18T15:40:15.932Z,29.87
2023-03-18T15:42:45.767Z,29.91
2023-03-18T15:45:21.419Z,30.15
2023-03-18T15:47:48.829Z,29.77
2023-03-18T15:50:25.185Z,30.08
2023-03-18T15:53:03.336Z,30.08
2023-03-18T15:55:35.385Z,30.41
2023-03-18T15:58:05.350Z,30.78
2023-03-18T16:00:32.976Z,31.05
2023-03-18T16:02:59.356Z,30.99
2023-03-18T16:05:27.510Z,31.13
2023-03-18T16:07:53.959Z,30.97
2023-03-18T16:10:22.595Z,31.05
2023-03-18T16:12:53.506Z,31.99
2023-03-18T16:15:21.916Z,31.27
2023-03-18T16:17:49.981Z,31.60
2023-03-18T16:20:34.323Z,31.96
2023-03-18T16:23:00.836Z,31.92
2023-03-18T16:25:28.464Z,31.64
2023-03-18T16:27:57.127Z,32.29
2023-03-18T16:30:26.472Z,33.24
2023-03-18T16:32:54.699Z,33.63
2023-03-18T16:35:24.838Z,33.23
2023-03-18T16:37:55.121Z,34.26
2023-03-18T16:40:24.617Z,35.60
2023-03-18T16:42:51.704Z,37.37
2023-03-18T16:45:20.497Z,38.54
2023-03-18T16:47:49.933Z,40.14
2023-03-18T16:50:23.571Z,41.88
2023-03-18T16:52:51.043Z,43.95
2023-03-18T16:55:19.510Z,45.54
2023-03-18T16:58:17.136Z,48.33
2023-03-18T17:00:45.231Z,48.19
2023-03-18T17:03:12.726Z,46.91
2023-03-18T17:05:39.127Z,49.05
2023-03-18T17:08:05.797Z,52.13
2023-03-18T17:10:32.159Z,53.30
2023-03-18T17:13:01.153Z,59.14
2023-03-18T17:15:33.533Z,61.67
2023-03-18T17:18:01.689Z,63.85
2023-03-18T17:20:29.871Z,66.19
2023-03-18T17:22:56.277Z,70.56
2023-03-18T17:25:25.914Z,74.00
2023-03-18T17:27:55.396Z,77.37
2023-03-18T17:30:31.130Z,80.44
2023-03-18T17:32:57.843Z,81.76
2023-03-18T17:35:24.514Z,83.42
2023-03-18T17:37:51.173Z,83.84
2023-03-18T17:40:19.386Z,85.26
2023-03-18T17:42:47.500Z,86.52
2023-03-18T17:45:35.572Z,87.23
2023-03-18T17:48:16.008Z,88.49
2023-03-18T17:50:43.812Z,89.72
2023-03-18T17:53:27.733Z,90.18
2023-03-18T17:55:55.385Z,90.69
2023-03-18T17:58:24.166Z,90.39
2023-03-18T18:00:50.981Z,91.90
2023-03-18T18:03:21.794Z,91.62
2023-03-18T18:05:49.602Z,91.62
2023-03-18T18:08:18.078Z,92.50
2023-03-18T18:10:45.811Z,94.13
2023-03-18T18:13:18.371Z,94.99
2023-03-18T18:15:46.261Z,96.28
2023-03-18T18:18:18.838Z,96.98
2023-03-18T18:20:45.780Z,98.61
2023-03-18T18:23:21.315Z,99.43
2023-03-18T18:25:47.623Z,100.00
2023-03-18T18:28:20.595Z,100.00
2023-03-18T18:30:48.254Z,100.00
2023-03-18T18:33:14.778Z,100.00
2023-03-18T18:35:41.118Z,100.00
2023-03-18T18:38:07.628Z,100.00
2023-03-18T18:40:33.948Z,100.00
2023-03-18T18:43:00.251Z,100.00
2023-03-18T18:45:26.680Z,100.00
2023-03-18T18:47:53.260Z,100.00
2023-03-18T18:50:24.297Z,100.00
2023-03-18T18:52:50.657Z,100.00
2023-03-18T18:55:17.016Z,100.00
2023-03-18T18:57:43.649Z,100.00
2023-03-18T19:00:21.994Z,100.00
2023-03-18T19:02:50.957Z,100.00
2023-03-18T19:05:19.131Z,100.00
2023-03-18T19:07:45.630Z,100.00
2023-03-18T19:10:14.330Z,100.00
2023-03-18T19:12:41.141Z,100.00
2023-03-18T19:15:08.507Z,100.00
2023-03-18T19:17:35.147Z,100.00
2023-03-18T19:20:02.468Z,100.00
2023-03-18T19:22:28.820Z,100.00
2023-03-18T19:24:55.212Z,100.00
2023-03-18T19:27:32.626Z,100.00
2023-03-18T19:30:01.491Z,100.00
2023-03-18T19:32:28.480Z,100.00
2023-03-18T19:34:55.012Z,100.00
2023-03-18T19:37:31.216Z,100.00
2023-03-18T19:39:59.682Z,100.00
2023-03-18T19:42:29.175Z,100.00
2023-03-18T19:44:55.525Z,100.00
2023-03-18T19:47:30.296Z,100.00
2023-03-18T19:49:56.920Z,100.00
2023-03-18T19:52:25.715Z,100.00
2023-03-18T19:54:53.331Z,100.00
2023-03-18T19:57:27.388Z,100.00
2023-03-18T19:59:56.822Z,100.00
2023-03-18T20:02:25.423Z,100.00
2023-03-18T20:04:57.266Z,100.00
2023-03-18T20:07:26.231Z,100.00
2023-03-18T20:09:53.864Z,100.00
2023-03-18T20:12:39.862Z,100.00
2023-03-18T20:15:14.899Z,100.00
2023-03-18T20:17:43.247Z,100.00
2023-03-18T20:20:20.876Z,100.00
2023-03-18T20:22:54.231Z,100.00
2023-03-18T20:25:24.933Z,100.00
2023-03-18T20:27:51.238Z,100.00
2023-03-18T20:30:22.173Z,100.00
2023-03-18T20:32:49.211Z,100.00
2023-03-18T20:35:15.891Z,100.00
2023-03-18T20:37:43.601Z,100.00
2023-03-18T20:40:30.627Z,100.00
2023-03-18T20:42:57.472Z,100.00
2023-03-18T20:45:25.651Z,100.00
2023-03-18T20:47:52.474Z,100.00
2023-03-18T20:50:25.610Z,100.00
2023-03-18T20:52:51.962Z,100.00
2023-03-18T20:55:21.505Z,100.00
2023-03-18T20:57:49.526Z,100.00
2023-03-18T21:00:19.410Z,100.00
2023-03-18T21:02:47.446Z,100.00
2023-03-18T21:05:14.899Z,100.00
2023-03-18T21:07:42.237Z,100.00
2023-03-18T21:10:14.433Z,100.00
2023-03-18T21:12:41.089Z,100.00
2023-03-18T21:15:14.460Z,100.00
2023-03-18T21:17:40.993Z,100.00
2023-03-18T21:20:21.777Z,100.00
2023-03-18T21:22:50.309Z,100.00
2023-03-18T21:25:19.908Z,100.00
2023-03-18T21:27:46.561Z,100.00
2023-03-18T21:30:14.672Z,100.00
2023-03-18T21:32:41.456Z,100.00
2023-03-18T21:35:16.538Z,100.00
2023-03-18T21:37:42.874Z,100.00
2023-03-18T21:40:18.727Z,100.00
2023-03-18T21:42:45.401Z,100.00
2023-03-18T21:45:15.236Z,100.00
2023-03-18T21:47:42.299Z,100.00
2023-03-18T21:50:19.463Z,100.00
2023-03-18T21:52:46.222Z,100.00
2023-03-18T21:55:13.208Z,100.00
2023-03-18T21:57:39.526Z,100.00
2023-03-18T22:00:06.942Z,100.00
2023-03-18T22:02:36.563Z,100.00
2023-03-18T22:05:08.047Z,100.00
2023-03-18T22:07:34.355Z,100.00
2023-03-18T22:10:00.867Z,100.00
2023-03-18T22:12:32.062Z,100.00
2023-03-18T22:14:59.465Z,100.00
2023-03-18T22:17:31.039Z,100.00
2023-03-18T22:19:59.567Z,100.00
2023-03-18T22:22:36.705Z,100.00
2023-03-18T22:25:04.543Z,100.00
2023-03-18T22:27:32.286Z,100.00
2023-03-18T22:30:00.122Z,100.00
2023-03-18T22:32:42.170Z,100.00
2023-03-18T22:35:17.654Z,100.00
2023-03-18T22:37:44.901Z,100.00
2023-03-18T22:40:29.292Z,100.00
2023-03-18T22:42:58.398Z,100.00
2023-03-18T22:45:33.618Z,100.00
2023-03-18T22:48:04.303Z,100.00
2023-03-18T22:50:33.290Z,100.00
2023-03-18T22:53:05.704Z,100.00
2023-03-18T22:55:36.059Z,100.00
2023-03-18T22:58:03.148Z,100.00
2023-03-18T23:00:44.177Z,100.00
2023-03-18T23:03:19.541Z,100.00
2023-03-18T23:05:48.102Z,100.00
2023-03-18T23:08:14.481Z,100.00
2023-03-18T23:10:42.874Z,100.00
2023-03-18T23:13:30.290Z,100.00
2023-03-18T23:15:56.777Z,100.00
2023-03-18T23:18:23.780Z,100.00
2023-03-18T23:20:52.015Z,100.00
2023-03-18T23:23:18.752Z,100.00
2023-03-18T23:25:45.882Z,100.00
2023-03-18T23:28:13.182Z,100.00
2023-03-18T23:30:42.410Z,100.00
2023-03-18T23:33:09.739Z,100.00
2023-03-18T23:35:37.026Z,100.00
2023-03-18T23:38:04.440Z,100.00
2023-03-18T23:40:31.087Z,100.00
2023-03-18T23:42:57.579Z,100.00
2023-03-18T23:45:24.252Z,100.00
2023-03-18T23:47:51.289Z,100.00
2023-03-18T23:50:17.908Z,100.00
2023-03-18T23:52:44.354Z,100.00
2023-03-18T23:55:30.455Z,100.00
2023-03-18T23:57:58.831Z,100.00
